createdAt,value
2022-12-27T00:02:17.281Z,48.17
2022-12-27T00:04:43.850Z,51.97
2022-12-27T00:07:10.571Z,49.33
2022-12-27T00:09:37.150Z,45.95
2022-12-27T00:12:04.151Z,47.30
2022-12-27T00:14:30.792Z,47.00
2022-12-27T00:16:57.380Z,51.55
2022-12-27T00:19:23.912Z,48.75
2022-12-27T00:21:50.516Z,46.13
2022-12-27T00:24:17.082Z,49.97
2022-12-27T00:26:43.690Z,52.05
2022-12-27T00:29:10.701Z,50.70
2022-12-27T00:31:37.989Z,45.90
2022-12-27T00:34:07.791Z,49.58
2022-12-27T00:36:35.331Z,52.58
2022-12-27T00:39:01.954Z,52.03
2022-12-27T00:41:28.699Z,49.28
2022-12-27T00:43:55.371Z,50.85
2022-12-27T00:46:22.196Z,48.15
2022-12-27T00:48:48.740Z,51.60
2022-12-27T00:51:21.594Z,52.50
2022-12-27T00:53:49.552Z,49.42
2022-12-27T00:56:19.552Z,52.50
2022-12-27T00:58:46.183Z,49.35
2022-12-27T01:01:16.799Z,52.30
2022-12-27T01:03:44.227Z,52.88
2022-12-27T01:06:16.990Z,50.65
2022-12-27T01:08:44.475Z,53.33
2022-12-27T01:11:11.863Z,54.72
2022-12-27T01:13:40.216Z,43.47
2022-12-27T01:16:22.288Z,49.00
2022-12-27T01:18:49.501Z,47.95
2022-12-27T01:21:19.353Z,50.53
2022-12-27T01:23:46.879Z,51.78
2022-12-27T01:26:19.605Z,50.33
2022-12-27T01:28:47.120Z,53.17
2022-12-27T01:31:17.546Z,55.83
2022-12-27T01:33:44.670Z,48.88
2022-12-27T01:36:19.835Z,50.20
2022-12-27T01:38:48.240Z,50.05
2022-12-27T01:41:37.855Z,50.30
2022-12-27T01:44:35.183Z,51.58
2022-12-27T01:47:04.480Z,53.97
2022-12-27T01:49:31.656Z,47.38
2022-12-27T01:51:58.698Z,48.25
2022-12-27T01:54:25.738Z,51.28
2022-12-27T01:56:52.466Z,52.38
2022-12-27T01:59:19.036Z,49.63
2022-12-27T02:01:48.532Z,45.95
2022-12-27T02:04:20.980Z,38.75
2022-12-27T02:06:48.195Z,35.42
2022-12-27T02:09:26.420Z,35.58
2022-12-27T02:11:56.778Z,39.85
2022-12-27T02:14:35.152Z,39.38
2022-12-27T02:17:09.764Z,44.83
2022-12-27T02:23:12.272Z,35.15
2022-12-27T02:25:50.814Z,74.03
2022-12-27T02:28:26.394Z,98.40
2022-12-27T02:31:00.908Z,96.82
2022-12-27T02:33:32.625Z,91.38
2022-12-27T02:36:04.764Z,89.07
2022-12-27T02:38:36.175Z,90.22
2022-12-27T02:41:25.212Z,85.15
2022-12-27T02:44:13.007Z,79.47
2022-12-27T02:46:58.683Z,78.28
2022-12-27T02:49:58.067Z,76.47
2022-12-27T02:53:04.798Z,74.53
2022-12-27T02:55:42.463Z,73.05
2022-12-27T02:58:31.973Z,72.35
2022-12-27T03:01:42.364Z,71.18
2022-12-27T03:04:27.965Z,66.57
2022-12-27T03:07:33.725Z,68.50
2022-12-27T03:13:37.175Z,54.45
2022-12-27T03:16:17.916Z,61.33
2022-12-27T03:18:55.605Z,65.97
2022-12-27T03:21:53.157Z,67.03
2022-12-27T03:24:44.225Z,62.67
2022-12-27T03:27:28.694Z,62.15
2022-12-27T03:30:16.492Z,63.40
2022-12-27T03:33:13.425Z,63.67
2022-12-27T03:36:08.670Z,61.40
2022-12-27T03:38:43.466Z,60.55
2022-12-27T03:41:33.956Z,62.92
2022-12-27T03:44:00.656Z,62.78
2022-12-27T03:46:35.892Z,64.28
2022-12-27T03:49:19.013Z,64.25
2022-12-27T03:52:00.281Z,62.83
2022-12-27T03:54:30.877Z,61.15
2022-12-27T03:57:01.084Z,63.88
2022-12-27T03:59:28.150Z,63.42
2022-12-27T04:01:55.540Z,64.28
2022-12-27T04:04:22.303Z,67.18
2022-12-27T04:06:51.700Z,64.30
2022-12-27T04:09:36.880Z,64.20
2022-12-27T04:12:22.365Z,60.67
2022-12-27T04:15:07.113Z,57.40
2022-12-27T04:17:52.540Z,57.95
2022-12-27T04:20:37.716Z,53.38
2022-12-27T04:23:23.221Z,56.08
2022-12-27T04:26:08.359Z,55.22
2022-12-27T04:28:53.167Z,57.28
2022-12-27T04:31:38.773Z,52.85
2022-12-27T04:34:23.755Z,50.42
2022-12-27T04:36:50.366Z,49.45
2022-12-27T04:39:17.251Z,52.05
2022-12-27T04:42:02.906Z,54.90
2022-12-27T04:44:48.205Z,49.13
2022-12-27T04:47:37.674Z,50.03
2022-12-27T04:50:36.204Z,48.47
2022-12-27T04:53:21.592Z,45.70
2022-12-27T04:55:48.156Z,47.42
2022-12-27T04:58:14.733Z,50.70
2022-12-27T05:01:00.109Z,53.50
2022-12-27T05:03:26.990Z,48.97
2022-12-27T05:05:53.838Z,50.63
2022-12-27T05:08:39.523Z,52.20
2022-12-27T05:11:25.460Z,56.92
2022-12-27T05:14:00.670Z,64.45
2022-12-27T05:16:35.594Z,64.38
2022-12-27T05:19:02.664Z,74.85
2022-12-27T05:21:29.226Z,67.03
2022-12-27T05:24:14.472Z,71.22
2022-12-27T05:26:41.324Z,68.38
2022-12-27T05:29:08.047Z,73.68
2022-12-27T05:31:34.834Z,68.25
2022-12-27T05:34:01.594Z,71.45
2022-12-27T05:36:28.190Z,70.18
2022-12-27T05:38:54.755Z,69.63
2022-12-27T05:41:21.359Z,68.32
2022-12-27T05:43:48.325Z,70.00
2022-12-27T05:46:20.854Z,67.00
2022-12-27T05:48:48.075Z,62.22
2022-12-27T05:51:18.184Z,66.05
2022-12-27T05:53:45.955Z,58.08
2022-12-27T05:56:18.011Z,62.05
2022-12-27T05:58:44.593Z,56.13
2022-12-27T06:01:13.912Z,58.03
2022-12-27T06:03:40.780Z,51.55
2022-12-27T06:06:08.879Z,54.00
2022-12-27T06:08:35.872Z,58.53
2022-12-27T06:11:17.250Z,53.70
2022-12-27T06:13:49.734Z,52.50
2022-12-27T06:16:17.039Z,50.85
2022-12-27T06:18:44.753Z,52.25
2022-12-27T06:21:16.693Z,53.75
2022-12-27T06:23:47.246Z,53.30
2022-12-27T06:26:23.263Z,57.47
2022-12-27T06:28:51.364Z,54.83
2022-12-27T06:31:19.413Z,52.05
2022-12-27T06:33:47.342Z,55.08
2022-12-27T06:36:17.023Z,55.28
2022-12-27T06:38:44.142Z,51.38
2022-12-27T06:41:13.365Z,48.50
2022-12-27T06:43:40.525Z,50.47
2022-12-27T06:46:17.011Z,48.65
2022-12-27T06:48:44.789Z,47.40
2022-12-27T06:51:12.870Z,43.47
2022-12-27T06:53:39.455Z,47.00
2022-12-27T06:56:07.751Z,44.55
2022-12-27T06:58:34.664Z,46.30
2022-12-27T07:01:21.039Z,45.58
2022-12-27T07:03:52.339Z,45.65
2022-12-27T07:06:20.181Z,45.10
2022-12-27T07:08:47.665Z,46.13
2022-12-27T07:11:15.410Z,46.75
2022-12-27T07:13:47.620Z,46.90
2022-12-27T07:16:17.231Z,46.28
2022-12-27T07:18:43.939Z,46.55
2022-12-27T07:21:13.938Z,45.70
2022-12-27T07:23:41.116Z,45.28
2022-12-27T07:26:10.257Z,46.50
2022-12-27T07:28:37.449Z,45.50
2022-12-27T07:31:08.527Z,45.95
2022-12-27T07:33:36.164Z,44.58
2022-12-27T07:36:03.251Z,45.13
2022-12-27T07:38:29.826Z,45.22
2022-12-27T07:41:00.034Z,44.58
2022-12-27T07:43:29.595Z,46.15
2022-12-27T07:46:02.241Z,50.65
2022-12-27T07:48:28.876Z,63.15
2022-12-27T07:50:56.086Z,62.67
2022-12-27T07:53:22.765Z,57.45
2022-12-27T07:55:50.964Z,57.40
2022-12-27T07:58:18.384Z,82.25
2022-12-27T08:00:50.737Z,84.18
2022-12-27T08:03:18.432Z,54.40
2022-12-27T08:05:49.637Z,75.60
2022-12-27T08:08:18.129Z,67.53
2022-12-27T08:10:44.785Z,68.72
2022-12-27T08:13:11.425Z,70.38
2022-12-27T08:15:40.607Z,57.85
2022-12-27T08:18:07.348Z,70.32
2022-12-27T08:20:34.080Z,67.32
2022-12-27T08:23:00.847Z,61.85
2022-12-27T08:25:28.488Z,56.13
2022-12-27T08:28:10.282Z,59.22
2022-12-27T08:30:38.189Z,45.35
2022-12-27T08:33:06.092Z,43.05
2022-12-27T08:35:52.337Z,39.88
2022-12-27T08:38:19.952Z,29.20
2022-12-27T08:40:46.770Z,28.13
2022-12-27T08:43:14.338Z,24.30
2022-12-27T08:45:40.937Z,22.45
2022-12-27T08:48:07.942Z,21.48
2022-12-27T08:50:34.915Z,21.50
2022-12-27T08:53:03.012Z,24.13
2022-12-27T08:55:31.003Z,25.45
2022-12-27T08:57:58.900Z,25.42
2022-12-27T09:00:27.064Z,24.40
2022-12-27T09:02:54.066Z,21.25
2022-12-27T09:05:22.145Z,20.70
2022-12-27T09:07:49.660Z,20.58
2022-12-27T09:10:16.971Z,18.25
2022-12-27T09:12:43.740Z,16.85
2022-12-27T09:15:10.559Z,18.73
2022-12-27T09:17:37.250Z,17.85
2022-12-27T09:20:05.123Z,18.83
2022-12-27T09:22:31.819Z,17.67
2022-12-27T09:24:58.408Z,16.23
2022-12-27T09:27:25.110Z,16.65
2022-12-27T09:29:52.040Z,15.65
2022-12-27T09:32:18.643Z,15.40
2022-12-27T09:34:45.324Z,15.90
2022-12-27T09:37:11.947Z,14.98
2022-12-27T09:39:38.485Z,15.70
2022-12-27T09:42:48.548Z,15.27
2022-12-27T09:45:37.046Z,14.70
2022-12-27T09:48:19.203Z,15.60
2022-12-27T09:50:56.779Z,14.30
2022-12-27T09:53:38.307Z,14.48
2022-12-27T09:56:06.484Z,15.35
2022-12-27T09:58:53.551Z,14.32
2022-12-27T10:01:28.074Z,14.18
2022-12-27T10:03:54.773Z,15.68
2022-12-27T10:06:39.446Z,14.80
2022-12-27T10:12:10.779Z,15.13
2022-12-27T10:14:59.896Z,15.40
2022-12-27T10:17:53.327Z,14.38
2022-12-27T10:20:33.435Z,16.13
2022-12-27T10:23:06.606Z,14.52
2022-12-27T10:25:36.164Z,15.20
2022-12-27T10:28:14.352Z,15.73
2022-12-27T10:30:42.208Z,15.27
2022-12-27T10:33:20.918Z,15.88
2022-12-27T10:35:48.651Z,15.05
2022-12-27T10:38:15.192Z,14.50
2022-12-27T10:40:52.603Z,14.70
2022-12-27T10:43:25.439Z,14.40
2022-12-27T10:45:52.052Z,14.00
2022-12-27T10:48:24.271Z,14.60
2022-12-27T10:51:01.547Z,14.98
2022-12-27T10:53:45.105Z,14.45
2022-12-27T10:56:20.995Z,13.25
2022-12-27T10:58:56.531Z,13.23
2022-12-27T11:01:31.282Z,12.50
2022-12-27T11:04:27.717Z,13.32
2022-12-27T11:07:01.762Z,14.38
2022-12-27T11:09:33.621Z,12.00
2022-12-27T11:12:20.502Z,11.23
2022-12-27T11:15:18.677Z,10.75
2022-12-27T11:17:54.667Z,12.35
2022-12-27T11:20:29.496Z,10.82
2022-12-27T11:23:01.104Z,11.73
2022-12-27T11:25:29.276Z,10.50
2022-12-27T11:28:04.507Z,11.25
2022-12-27T11:30:34.632Z,10.90
2022-12-27T11:33:37.569Z,10.80
2022-12-27T11:36:05.334Z,11.00
2022-12-27T11:38:34.482Z,11.88
2022-12-27T11:41:16.817Z,10.90
2022-12-27T11:44:09.480Z,11.10
2022-12-27T11:47:00.760Z,11.40
2022-12-27T11:49:35.851Z,11.75
2022-12-27T11:52:23.767Z,10.60
2022-12-27T11:54:56.607Z,11.35
2022-12-27T11:57:38.047Z,10.75
2022-12-27T12:00:16.527Z,11.90
2022-12-27T12:02:49.226Z,11.60
2022-12-27T12:05:33.767Z,11.05
2022-12-27T12:08:21.891Z,11.73
2022-12-27T12:10:55.409Z,11.02
2022-12-27T12:13:46.055Z,10.98
2022-12-27T12:16:40.908Z,10.82
2022-12-27T12:19:33.713Z,11.45
2022-12-27T12:22:30.078Z,10.95
2022-12-27T12:25:02.412Z,11.55
2022-12-27T12:27:47.465Z,11.45
2022-12-27T12:30:33.502Z,11.25
2022-12-27T12:33:26.990Z,12.07
2022-12-27T12:36:08.391Z,11.98
2022-12-27T12:39:11.173Z,11.48
2022-12-27T12:42:04.579Z,12.18
2022-12-27T12:44:56.005Z,11.00
2022-12-27T12:48:10.394Z,12.30
2022-12-27T12:51:01.300Z,11.85
2022-12-27T12:53:33.923Z,11.93
2022-12-27T12:56:44.844Z,11.27
2022-12-27T12:59:43.919Z,11.40
2022-12-27T13:02:28.520Z,11.40
2022-12-27T13:05:14.802Z,12.00
2022-12-27T13:07:50.608Z,11.82
2022-12-27T13:10:39.032Z,12.68
2022-12-27T13:13:39.709Z,13.23
2022-12-27T13:16:32.652Z,12.52
2022-12-27T13:19:26.576Z,12.95
2022-12-27T13:22:08.528Z,14.00
2022-12-27T13:24:57.120Z,12.13
2022-12-27T13:27:49.976Z,11.60
2022-12-27T13:30:28.793Z,11.45
2022-12-27T13:33:31.525Z,12.65
2022-12-27T13:36:09.991Z,13.02
2022-12-27T13:39:01.323Z,12.05
2022-12-27T13:42:13.404Z,12.15
2022-12-27T13:45:09.456Z,12.60
2022-12-27T13:47:39.027Z,13.23
2022-12-27T13:50:30.596Z,13.40
2022-12-27T13:53:37.508Z,13.23
2022-12-27T13:59:44.255Z,13.98
2022-12-27T14:02:50.664Z,12.88
2022-12-27T14:05:37.531Z,13.48
2022-12-27T14:08:13.309Z,14.05
2022-12-27T14:10:45.557Z,13.88
2022-12-27T14:13:15.680Z,13.23
2022-12-27T14:16:07.034Z,13.50
2022-12-27T14:19:03.111Z,14.63
2022-12-27T14:22:00.451Z,14.82
2022-12-27T14:24:42.190Z,13.50
2022-12-27T14:27:53.534Z,14.32
2022-12-27T14:30:51.920Z,14.25
2022-12-27T14:33:33.772Z,13.40
2022-12-27T14:36:44.266Z,13.90
2022-12-27T14:39:40.933Z,14.20
2022-12-27T14:42:44.588Z,14.88
2022-12-27T14:45:55.414Z,14.82
2022-12-27T14:48:47.931Z,15.77
2022-12-27T14:52:01.809Z,15.43
2022-12-27T14:54:40.063Z,15.60
2022-12-27T14:57:33.549Z,17.98
2022-12-27T15:00:04.382Z,17.23
2022-12-27T15:02:47.913Z,18.77
2022-12-27T15:05:23.556Z,18.58
2022-12-27T15:08:08.822Z,18.55
2022-12-27T15:10:47.589Z,19.35
2022-12-27T15:13:14.100Z,20.48
2022-12-27T15:15:43.352Z,20.27
2022-12-27T15:18:28.292Z,21.38
2022-12-27T15:21:02.166Z,21.08
2022-12-27T15:23:28.663Z,22.20
2022-12-27T15:26:03.468Z,20.75
2022-12-27T15:28:40.130Z,21.40
2022-12-27T15:31:21.184Z,20.92
2022-12-27T15:34:24.342Z,21.00
2022-12-27T15:36:51.482Z,20.90
2022-12-27T15:39:32.993Z,21.35
2022-12-27T15:42:03.590Z,21.27
2022-12-27T15:44:59.503Z,21.13
2022-12-27T15:47:31.816Z,21.67
2022-12-27T15:50:21.389Z,21.73
2022-12-27T15:53:01.133Z,21.35
2022-12-27T15:56:06.401Z,21.88
2022-12-27T15:58:33.508Z,21.73
2022-12-27T16:01:25.934Z,21.13
2022-12-27T16:03:54.121Z,21.33
2022-12-27T16:06:36.070Z,21.48
2022-12-27T16:09:36.876Z,22.23
2022-12-27T16:12:11.158Z,21.70
2022-12-27T16:14:41.089Z,22.75
2022-12-27T16:17:13.503Z,21.73
2022-12-27T16:19:53.973Z,22.90
2022-12-27T16:22:54.796Z,22.98
2022-12-27T16:25:30.632Z,22.10
2022-12-27T16:28:24.875Z,23.75
2022-12-27T16:30:56.690Z,22.92
2022-12-27T16:33:26.014Z,22.45
2022-12-27T16:36:29.991Z,22.35
2022-12-27T16:39:18.316Z,22.20
2022-12-27T16:41:54.034Z,22.00
2022-12-27T16:44:28.152Z,22.58
2022-12-27T16:47:04.697Z,22.48
2022-12-27T16:49:51.436Z,22.60
2022-12-27T16:52:53.026Z,22.90
2022-12-27T16:55:57.167Z,22.67
2022-12-27T16:58:36.529Z,22.23
2022-12-27T17:01:27.310Z,21.90
2022-12-27T17:03:55.811Z,21.15
2022-12-27T17:06:42.348Z,22.80
2022-12-27T17:09:08.998Z,22.15
2022-12-27T17:11:50.596Z,22.48
2022-12-27T17:14:26.006Z,21.75
2022-12-27T17:17:03.559Z,21.40
2022-12-27T17:19:52.449Z,22.58
2022-12-27T17:22:20.849Z,22.48
2022-12-27T17:24:48.888Z,22.63
2022-12-27T17:27:39.534Z,22.40
2022-12-27T17:30:41.557Z,23.55
2022-12-27T17:33:39.973Z,23.75
2022-12-27T17:36:15.475Z,21.05
2022-12-27T17:39:04.911Z,22.33
2022-12-27T17:42:17.912Z,23.27
2022-12-27T17:45:07.672Z,25.15
2022-12-27T17:47:43.175Z,23.58
2022-12-27T17:50:20.961Z,23.67
2022-12-27T17:53:27.838Z,24.30
2022-12-27T17:56:40.649Z,23.70
2022-12-27T17:59:23.352Z,25.02
2022-12-27T18:01:53.902Z,25.15
2022-12-27T18:04:30.801Z,25.10
2022-12-27T18:07:10.174Z,25.40
2022-12-27T18:09:46.161Z,26.13
2022-12-27T18:12:18.861Z,26.35
2022-12-27T18:14:58.940Z,26.73
2022-12-27T18:17:32.628Z,27.40
2022-12-27T18:19:59.191Z,28.00
2022-12-27T18:22:26.975Z,26.67
2022-12-27T18:24:53.523Z,27.70
2022-12-27T18:27:24.946Z,28.33
2022-12-27T18:29:52.063Z,30.92
2022-12-27T18:32:19.411Z,26.00
2022-12-27T18:34:57.660Z,26.50
2022-12-27T18:37:25.932Z,29.75
2022-12-27T18:40:02.418Z,29.25
2022-12-27T18:42:41.098Z,28.73
2022-12-27T18:45:29.834Z,43.63
2022-12-27T18:48:02.340Z,47.53
2022-12-27T18:50:32.206Z,48.33
2022-12-27T18:53:07.239Z,47.03
2022-12-27T18:55:34.476Z,48.10
2022-12-27T18:58:07.893Z,50.40
2022-12-27T19:00:59.042Z,50.22
2022-12-27T19:03:27.312Z,53.55
2022-12-27T19:06:10.970Z,57.42
2022-12-27T19:08:53.170Z,58.20
2022-12-27T19:11:29.310Z,59.33
2022-12-27T19:14:00.562Z,57.88
2022-12-27T19:16:29.430Z,56.13
2022-12-27T19:19:07.769Z,56.30
2022-12-27T19:21:37.625Z,60.50
2022-12-27T19:24:29.392Z,51.13
2022-12-27T19:27:01.376Z,50.47
2022-12-27T19:29:32.625Z,44.70
2022-12-27T19:32:07.372Z,42.47
2022-12-27T19:34:45.276Z,39.13
2022-12-27T19:37:12.896Z,35.30
2022-12-27T19:39:41.049Z,39.67
2022-12-27T19:42:14.942Z,38.88
2022-12-27T19:44:41.537Z,38.40
2022-12-27T19:47:12.955Z,41.28
2022-12-27T19:49:42.678Z,28.48
2022-12-27T19:52:22.811Z,31.98
2022-12-27T19:54:52.658Z,27.63
2022-12-27T19:57:19.848Z,28.98
2022-12-27T19:59:46.457Z,25.38
2022-12-27T20:02:13.623Z,25.30
2022-12-27T20:04:40.469Z,26.02
2022-12-27T20:07:07.145Z,24.73
2022-12-27T20:09:33.738Z,24.42
2022-12-27T20:12:00.364Z,22.70
2022-12-27T20:14:26.982Z,23.08
2022-12-27T20:16:53.620Z,24.30
2022-12-27T20:19:20.362Z,26.70
2022-12-27T20:21:47.565Z,29.40
2022-12-27T20:24:14.818Z,29.35
2022-12-27T20:26:42.487Z,25.00
2022-12-27T20:29:09.583Z,24.17
2022-12-27T20:31:43.796Z,24.67
2022-12-27T20:34:12.102Z,23.40
2022-12-27T20:36:38.708Z,25.33
2022-12-27T20:39:07.178Z,24.10
2022-12-27T20:41:34.545Z,23.02
2022-12-27T20:44:01.317Z,23.50
2022-12-27T20:46:28.295Z,24.38
2022-12-27T20:48:56.365Z,24.05
2022-12-27T20:51:27.710Z,23.58
2022-12-27T20:53:56.158Z,23.48
2022-12-27T20:56:23.225Z,23.27
2022-12-27T20:58:49.968Z,23.83
2022-12-27T21:01:19.998Z,24.70
2022-12-27T21:03:46.967Z,24.23
2022-12-27T21:06:22.234Z,23.10
2022-12-27T21:08:56.200Z,23.95
2022-12-27T21:11:27.136Z,24.20
2022-12-27T21:13:54.616Z,24.70
2022-12-27T21:16:27.026Z,25.90
2022-12-27T21:18:54.842Z,23.70
2022-12-27T21:21:27.637Z,25.33
2022-12-27T21:23:55.683Z,24.20
2022-12-27T21:26:25.701Z,24.63
2022-12-27T21:28:53.058Z,23.13
2022-12-27T21:31:20.538Z,24.67
2022-12-27T21:33:47.831Z,21.98
2022-12-27T21:36:17.045Z,23.10
2022-12-27T21:38:44.231Z,22.50
2022-12-27T21:41:21.161Z,23.20
2022-12-27T21:43:49.196Z,22.13
2022-12-27T21:46:24.053Z,23.27
2022-12-27T21:49:01.893Z,23.75
2022-12-27T21:51:29.799Z,23.35
2022-12-27T21:53:57.032Z,22.20
2022-12-27T21:56:24.817Z,22.20
2022-12-27T21:58:52.039Z,23.70
2022-12-27T22:01:21.076Z,24.80
2022-12-27T22:03:49.848Z,25.38
2022-12-27T22:06:31.584Z,24.88
2022-12-27T22:09:01.696Z,24.67
2022-12-27T22:11:30.034Z,24.15
2022-12-27T22:13:56.614Z,24.25
2022-12-27T22:16:26.071Z,23.25
2022-12-27T22:18:55.926Z,26.55
2022-12-27T22:21:26.000Z,25.05
2022-12-27T22:23:54.396Z,23.17
2022-12-27T22:26:23.694Z,24.13
2022-12-27T22:28:50.882Z,23.25
2022-12-27T22:31:23.119Z,22.98
2022-12-27T22:33:50.683Z,23.30
2022-12-27T22:36:23.131Z,22.85
2022-12-27T22:38:50.753Z,23.17
2022-12-27T22:41:20.639Z,22.33
2022-12-27T22:44:02.162Z,24.25
2022-12-27T22:46:51.026Z,23.13
2022-12-27T22:49:17.127Z,24.45
2022-12-27T22:51:43.726Z,22.17
2022-12-27T22:54:10.370Z,23.30
2022-12-27T22:56:39.774Z,23.65
2022-12-27T22:59:12.216Z,22.75
2022-12-27T23:01:40.360Z,22.38
2022-12-27T23:04:08.566Z,24.08
2022-12-27T23:06:36.164Z,24.27
2022-12-27T23:09:03.809Z,23.38
2022-12-27T23:11:36.592Z,24.27
2022-12-27T23:14:06.793Z,21.98
2022-12-27T23:16:38.218Z,23.40
2022-12-27T23:19:05.470Z,22.00
2022-12-27T23:21:32.095Z,22.60
2022-12-27T23:23:58.789Z,22.85
2022-12-27T23:26:25.694Z,22.27
2022-12-27T23:28:52.992Z,23.52
2022-12-27T23:31:22.396Z,23.83
2022-12-27T23:33:49.256Z,23.73
2022-12-27T23:36:16.235Z,23.40
2022-12-27T23:38:43.745Z,23.10
2022-12-27T23:41:22.261Z,22.27
2022-12-27T23:43:52.616Z,24.63
2022-12-27T23:46:33.875Z,23.73
2022-12-27T23:49:03.407Z,24.77
2022-12-27T23:51:31.326Z,27.73
2022-12-27T23:53:58.624Z,27.95
2022-12-27T23:56:27.651Z,28.70
2022-12-27T23:58:55.600Z,29.73
